createdAt,value
2018-03-15T00:00:23.538Z,969.45
2018-03-15T00:01:23.403Z,969.43
2018-03-15T00:02:23.320Z,969.41
2018-03-15T00:03:23.238Z,969.42
2018-03-15T00:04:23.155Z,969.39
2018-03-15T00:05:23.073Z,969.37
2018-03-15T00:06:23.042Z,969.35
2018-03-15T00:07:22.970Z,969.32
2018-03-15T00:08:22.822Z,969.33
2018-03-15T00:09:22.739Z,969.37
2018-03-15T00:10:22.677Z,969.31
2018-03-15T00:11:22.634Z,969.33
2018-03-15T00:12:22.547Z,969.31
2018-03-15T00:13:22.409Z,969.28
2018-03-15T00:14:22.322Z,969.29
2018-03-15T00:15:22.240Z,969.32
2018-03-15T00:16:22.222Z,969.30
2018-03-15T00:17:22.070Z,969.28
2018-03-15T00:18:21.987Z,969.29
2018-03-15T00:19:21.904Z,969.27
2018-03-15T00:20:21.822Z,969.27
2018-03-15T00:21:21.738Z,969.26
2018-03-15T00:22:21.653Z,969.24
2018-03-15T00:23:21.569Z,969.19
2018-03-15T00:24:21.488Z,969.22
2018-03-15T00:25:21.431Z,969.13
2018-03-15T00:26:21.324Z,969.13
2018-03-15T00:27:21.237Z,969.10
2018-03-15T00:28:21.152Z,969.09
2018-03-15T00:29:21.105Z,969.06
2018-03-15T00:30:20.990Z,969.03
2018-03-15T00:31:20.902Z,968.97
2018-03-15T00:32:20.822Z,969.00
2018-03-15T00:33:20.734Z,968.94
2018-03-15T00:34:20.651Z,968.96
2018-03-15T00:35:20.565Z,968.88
2018-03-15T00:36:20.487Z,968.94
2018-03-15T00:37:20.398Z,968.89
2018-03-15T00:38:20.318Z,968.84
2018-03-15T00:39:20.233Z,968.82
2018-03-15T00:40:20.149Z,968.86
2018-03-15T00:41:20.068Z,968.83
2018-03-15T00:42:19.984Z,968.79
2018-03-15T00:43:19.897Z,968.77
2018-03-15T00:44:19.811Z,968.76
2018-03-15T00:45:19.727Z,968.74
2018-03-15T00:46:19.648Z,968.75
2018-03-15T00:47:19.564Z,968.71
2018-03-15T00:48:19.481Z,968.74
2018-03-15T00:49:19.393Z,968.70
2018-03-15T00:50:19.313Z,968.66
2018-03-15T00:51:19.229Z,968.67
2018-03-15T00:52:19.143Z,968.62
2018-03-15T00:53:19.059Z,968.59
2018-03-15T00:54:18.975Z,968.56
2018-03-15T00:55:18.894Z,968.56
2018-03-15T00:56:18.810Z,968.58
2018-03-15T00:57:18.735Z,968.58
2018-03-15T00:58:18.640Z,968.61
2018-03-15T00:59:18.556Z,968.59
2018-03-15T01:00:18.475Z,968.59
2018-03-15T01:01:18.401Z,968.64
2018-03-15T01:02:18.303Z,968.62
2018-03-15T01:03:18.221Z,968.59
2018-03-15T01:04:18.137Z,968.56
2018-03-15T01:05:18.058Z,968.55
2018-03-15T01:06:17.968Z,968.51
2018-03-15T01:07:17.887Z,968.49
2018-03-15T01:08:17.801Z,968.52
2018-03-15T01:09:17.718Z,968.47
2018-03-15T01:10:17.636Z,968.48
2018-03-15T01:11:17.567Z,968.47
2018-03-15T01:12:17.467Z,968.42
2018-03-15T01:13:17.381Z,968.44
2018-03-15T01:14:17.313Z,968.37
2018-03-15T01:15:17.210Z,968.38
2018-03-15T01:16:17.127Z,968.36
2018-03-15T01:17:17.041Z,968.37
2018-03-15T01:18:16.961Z,968.31
2018-03-15T01:19:16.876Z,968.33
2018-03-15T01:20:16.793Z,968.31
2018-03-15T01:21:16.705Z,968.30
2018-03-15T01:22:16.621Z,968.31
2018-03-15T01:23:16.542Z,968.27
2018-03-15T01:24:16.455Z,968.32
2018-03-15T01:25:16.368Z,968.31
2018-03-15T01:26:16.284Z,968.28
2018-03-15T01:27:16.201Z,968.31
2018-03-15T01:28:16.117Z,968.28
2018-03-15T01:29:16.033Z,968.29
2018-03-15T01:30:15.949Z,968.25
2018-03-15T01:31:15.864Z,968.23
2018-03-15T01:32:15.780Z,968.22
2018-03-15T01:33:15.697Z,968.19
2018-03-15T01:34:15.611Z,968.20
2018-03-15T01:35:15.528Z,968.18
2018-03-15T01:36:15.443Z,968.13
2018-03-15T01:37:15.357Z,968.12
2018-03-15T01:38:15.274Z,968.09
2018-03-15T01:39:15.189Z,968.09
2018-03-15T01:40:15.109Z,968.07
2018-03-15T01:41:15.041Z,968.05
2018-03-15T01:42:14.936Z,968.02
2018-03-15T01:43:14.853Z,968.03
2018-03-15T01:44:14.767Z,967.96
2018-03-15T01:45:14.687Z,967.95
2018-03-15T01:46:14.598Z,967.96
2018-03-15T01:47:14.515Z,967.97
2018-03-15T01:48:14.429Z,967.94
2018-03-15T01:49:14.344Z,967.90
2018-03-15T01:50:14.261Z,967.93
2018-03-15T01:51:14.177Z,967.92
2018-03-15T01:52:14.098Z,967.91
2018-03-15T01:53:14.007Z,967.90
2018-03-15T01:54:13.924Z,967.92
2018-03-15T01:55:13.840Z,967.86
2018-03-15T01:56:13.754Z,967.85
2018-03-15T01:57:13.666Z,967.80
2018-03-15T01:58:13.587Z,967.82
2018-03-15T01:59:13.502Z,967.79
2018-03-15T02:00:13.418Z,967.78
2018-03-15T02:01:13.331Z,967.77
2018-03-15T02:02:13.245Z,967.77
2018-03-15T02:03:13.163Z,967.70
2018-03-15T02:04:13.079Z,967.73
2018-03-15T02:05:13.014Z,967.68
2018-03-15T02:06:12.907Z,967.66
2018-03-15T02:07:12.823Z,967.66
2018-03-15T02:08:12.738Z,967.65
2018-03-15T02:09:12.667Z,967.61
2018-03-15T02:10:12.571Z,967.57
2018-03-15T02:11:12.497Z,967.53
2018-03-15T02:12:12.405Z,967.50
2018-03-15T02:13:12.316Z,967.49
2018-03-15T02:14:12.229Z,967.46
2018-03-15T02:15:12.146Z,967.49
2018-03-15T02:16:12.061Z,967.45
2018-03-15T02:17:11.977Z,967.38
2018-03-15T02:18:11.893Z,967.43
2018-03-15T02:19:11.815Z,967.43
2018-03-15T02:20:11.725Z,967.39
2018-03-15T02:21:11.639Z,967.39
2018-03-15T02:22:11.556Z,967.38
2018-03-15T02:23:11.470Z,967.36
2018-03-15T02:24:11.385Z,967.33
2018-03-15T02:25:11.301Z,967.34
2018-03-15T02:26:11.216Z,967.33
2018-03-15T02:27:11.130Z,967.30
2018-03-15T02:28:11.046Z,967.29
2018-03-15T02:29:10.960Z,967.24
2018-03-15T02:30:10.880Z,967.27
2018-03-15T02:31:10.792Z,967.22
2018-03-15T02:32:10.709Z,967.18
2018-03-15T02:33:10.622Z,967.17
2018-03-15T02:34:10.542Z,967.18
2018-03-15T02:35:10.452Z,967.16
2018-03-15T02:36:10.369Z,967.14
2018-03-15T02:37:10.279Z,967.12
2018-03-15T02:38:10.202Z,967.11
2018-03-15T02:39:10.113Z,967.09
2018-03-15T02:40:10.030Z,967.13
2018-03-15T02:41:09.942Z,967.15
2018-03-15T02:42:09.857Z,967.16
2018-03-15T02:43:09.774Z,967.13
2018-03-15T02:44:09.689Z,967.17
2018-03-15T02:45:09.602Z,967.13
2018-03-15T02:46:09.519Z,967.13
2018-03-15T02:47:09.435Z,967.14
2018-03-15T02:48:09.350Z,967.15
2018-03-15T02:49:09.263Z,967.14
2018-03-15T02:50:09.180Z,967.12
2018-03-15T02:51:09.096Z,967.11
2018-03-15T02:52:09.013Z,967.12
2018-03-15T02:53:08.928Z,967.12
2018-03-15T02:54:08.845Z,967.10
2018-03-15T02:55:08.754Z,967.02
2018-03-15T02:56:08.668Z,967.08
2018-03-15T02:57:08.584Z,967.10
2018-03-15T02:58:08.498Z,967.07
2018-03-15T02:59:08.419Z,967.08
2018-03-15T03:00:08.328Z,967.13
2018-03-15T03:01:08.244Z,967.09
2018-03-15T03:02:08.160Z,967.11
2018-03-15T03:03:08.132Z,967.07
2018-03-15T03:04:07.987Z,967.11
2018-03-15T03:05:07.912Z,967.10
2018-03-15T03:06:07.816Z,967.16
2018-03-15T03:07:07.731Z,967.12
2018-03-15T03:08:07.649Z,967.10
2018-03-15T03:09:07.563Z,967.10
2018-03-15T03:10:07.478Z,967.14
2018-03-15T03:11:07.394Z,967.17
2018-03-15T03:12:07.307Z,967.22
2018-03-15T03:13:07.221Z,967.20
2018-03-15T03:14:07.135Z,967.24
2018-03-15T03:15:07.051Z,967.19
2018-03-15T03:16:06.966Z,967.17
2018-03-15T03:17:06.885Z,967.15
2018-03-15T03:18:06.795Z,967.18
2018-03-15T03:19:06.716Z,967.16
2018-03-15T03:20:06.628Z,967.17
2018-03-15T03:21:06.541Z,967.19
2018-03-15T03:22:06.458Z,967.19
2018-03-15T03:23:06.370Z,967.21
2018-03-15T03:24:06.284Z,967.19
2018-03-15T03:25:06.202Z,967.22
2018-03-15T03:26:06.115Z,967.25
2018-03-15T03:27:06.032Z,967.23
2018-03-15T03:28:05.946Z,967.31
2018-03-15T03:29:05.860Z,967.31
2018-03-15T03:30:05.781Z,967.29
2018-03-15T03:31:05.693Z,967.35
2018-03-15T03:32:05.603Z,967.33
2018-03-15T03:33:05.521Z,967.35
2018-03-15T03:34:05.434Z,967.36
2018-03-15T03:35:05.348Z,967.38
2018-03-15T03:36:05.281Z,967.35
2018-03-15T03:37:05.178Z,967.42
2018-03-15T03:38:05.094Z,967.39
2018-03-15T03:39:05.008Z,967.37
2018-03-15T03:40:04.926Z,967.36
2018-03-15T03:41:04.837Z,967.34
2018-03-15T03:42:04.752Z,967.34
2018-03-15T03:43:04.667Z,967.33
2018-03-15T03:44:04.586Z,967.34
2018-03-15T03:45:04.496Z,967.36
2018-03-15T03:46:04.410Z,967.34
2018-03-15T03:47:04.326Z,967.36
2018-03-15T03:48:04.241Z,967.33
2018-03-15T03:49:04.159Z,967.33
2018-03-15T03:50:04.070Z,967.33
2018-03-15T03:51:03.985Z,967.36
2018-03-15T03:52:03.900Z,967.35
2018-03-15T03:53:03.814Z,967.34
2018-03-15T03:54:03.728Z,967.31
2018-03-15T03:55:03.646Z,967.35
2018-03-15T03:56:03.561Z,967.32
2018-03-15T03:57:03.471Z,967.29
2018-03-15T03:58:03.390Z,967.29
2018-03-15T03:59:03.303Z,967.30
2018-03-15T04:00:03.216Z,967.33
2018-03-15T04:01:03.133Z,967.35
2018-03-15T04:02:03.077Z,967.31
2018-03-15T04:03:02.980Z,967.31
2018-03-15T04:04:02.876Z,967.34
2018-03-15T04:05:02.790Z,967.32
2018-03-15T04:06:02.705Z,967.32
2018-03-15T04:07:02.619Z,967.30
2018-03-15T04:08:02.536Z,967.33
2018-03-15T04:09:02.452Z,967.27
2018-03-15T04:10:02.362Z,967.26
2018-03-15T04:11:02.280Z,967.29
2018-03-15T04:12:02.194Z,967.28
2018-03-15T04:13:02.106Z,967.24
2018-03-15T04:14:02.020Z,967.27
2018-03-15T04:15:01.935Z,967.28
2018-03-15T04:16:01.851Z,967.27
2018-03-15T04:17:01.764Z,967.31
2018-03-15T04:18:01.678Z,967.30
2018-03-15T04:19:01.593Z,967.32
2018-03-15T04:20:01.512Z,967.30
2018-03-15T04:21:01.430Z,967.31
2018-03-15T04:22:01.337Z,967.31
2018-03-15T04:23:01.255Z,967.31
2018-03-15T04:24:01.166Z,967.27
2018-03-15T04:25:01.081Z,967.29
2018-03-15T04:26:00.993Z,967.34
2018-03-15T04:27:00.910Z,967.29
2018-03-15T04:28:00.831Z,967.27
2018-03-15T04:29:00.738Z,967.27
2018-03-15T04:30:00.652Z,967.24
2018-03-15T04:31:00.574Z,967.22
2018-03-15T04:32:00.482Z,967.26
2018-03-15T04:33:00.402Z,967.21
2018-03-15T04:34:00.313Z,967.24
2018-03-15T04:35:00.225Z,967.21
2018-03-15T04:36:00.147Z,967.25
2018-03-15T04:37:00.056Z,967.25
2018-03-15T04:37:59.970Z,967.25
2018-03-15T04:38:59.885Z,967.23
2018-03-15T04:39:59.798Z,967.20
2018-03-15T04:40:59.710Z,967.18
2018-03-15T04:41:59.626Z,967.16
2018-03-15T04:42:59.540Z,967.17
2018-03-15T04:43:59.459Z,967.17
2018-03-15T04:44:59.367Z,967.15
2018-03-15T04:45:59.285Z,967.12
2018-03-15T04:46:59.197Z,967.10
2018-03-15T04:47:59.110Z,967.06
2018-03-15T04:48:59.031Z,967.05
2018-03-15T04:49:58.940Z,967.01
2018-03-15T04:50:58.854Z,966.98
2018-03-15T04:51:58.770Z,966.97
2018-03-15T04:52:58.688Z,966.95
2018-03-15T04:53:58.599Z,966.91
2018-03-15T04:54:58.515Z,966.92
2018-03-15T04:55:58.427Z,966.93
2018-03-15T04:56:58.343Z,966.89
2018-03-15T04:57:58.254Z,966.92
2018-03-15T04:58:58.193Z,966.86
2018-03-15T04:59:58.085Z,966.83
2018-03-15T05:00:57.997Z,966.84
2018-03-15T05:01:57.911Z,966.86
2018-03-15T05:02:57.825Z,966.87
2018-03-15T05:03:57.741Z,966.89
2018-03-15T05:04:57.653Z,966.85
2018-03-15T05:05:58.077Z,966.88
2018-03-15T05:06:57.485Z,966.90
2018-03-15T05:07:57.398Z,966.86
2018-03-15T05:08:57.311Z,966.89
2018-03-15T05:09:57.225Z,966.87
2018-03-15T05:10:57.139Z,966.88
2018-03-15T05:11:57.057Z,966.88
2018-03-15T05:12:56.970Z,966.88
2018-03-15T05:13:56.884Z,966.87
2018-03-15T05:14:56.803Z,966.84
2018-03-15T05:15:56.711Z,966.83
2018-03-15T05:16:56.622Z,966.81
2018-03-15T05:17:56.539Z,966.78
2018-03-15T05:18:56.452Z,966.80
2018-03-15T05:19:56.366Z,966.78
2018-03-15T05:20:56.284Z,966.80
2018-03-15T05:21:56.196Z,966.86
2018-03-15T05:22:56.110Z,966.85
2018-03-15T05:23:56.023Z,966.85
2018-03-15T05:24:55.938Z,966.87
2018-03-15T05:25:55.850Z,966.84
2018-03-15T05:26:55.770Z,966.84
2018-03-15T05:27:55.681Z,966.82
2018-03-15T05:28:55.593Z,966.81
2018-03-15T05:29:55.509Z,966.78
2018-03-15T05:30:55.422Z,966.75
2018-03-15T05:31:55.339Z,966.74
2018-03-15T05:32:55.250Z,966.74
2018-03-15T05:33:55.165Z,966.73
2018-03-15T05:34:55.090Z,966.76
2018-03-15T05:35:54.993Z,966.72
2018-03-15T05:36:54.907Z,966.69
2018-03-15T05:37:54.819Z,966.71
2018-03-15T05:38:54.733Z,966.66
2018-03-15T05:39:54.648Z,966.61
2018-03-15T05:40:54.567Z,966.67
2018-03-15T05:41:54.477Z,966.61
2018-03-15T05:42:54.390Z,966.62
2018-03-15T05:43:54.307Z,966.64
2018-03-15T05:44:54.269Z,966.64
2018-03-15T05:45:54.133Z,966.62
2018-03-15T05:46:54.047Z,966.60
2018-03-15T05:47:53.963Z,966.63
2018-03-15T05:48:53.874Z,966.63
2018-03-15T05:49:53.788Z,966.60
2018-03-15T05:50:53.703Z,966.60
2018-03-15T05:51:53.617Z,966.60
2018-03-15T05:52:53.530Z,966.61
2018-03-15T05:53:53.444Z,966.59
2018-03-15T05:54:53.376Z,966.59
2018-03-15T05:55:53.304Z,966.56
2018-03-15T05:56:53.186Z,966.54
2018-03-15T05:57:53.152Z,966.52
2018-03-15T05:58:53.015Z,966.53
2018-03-15T05:59:52.929Z,966.48
2018-03-15T06:00:52.842Z,966.51
2018-03-15T06:01:52.758Z,966.54
2018-03-15T06:02:52.685Z,966.50
2018-03-15T06:03:52.584Z,966.47
2018-03-15T06:04:52.500Z,966.51
2018-03-15T06:05:52.414Z,966.50
2018-03-15T06:06:52.327Z,966.47
2018-03-15T06:07:52.244Z,966.47
2018-03-15T06:08:52.164Z,966.46
2018-03-15T06:09:52.069Z,966.44
2018-03-15T06:10:51.985Z,966.45
2018-03-15T06:11:51.899Z,966.45
2018-03-15T06:12:51.812Z,966.42
2018-03-15T06:13:51.726Z,966.44
2018-03-15T06:14:51.644Z,966.43
2018-03-15T06:15:51.554Z,966.40
2018-03-15T06:16:51.469Z,966.41
2018-03-15T06:17:51.382Z,966.43
2018-03-15T06:18:51.296Z,966.43
2018-03-15T06:19:51.312Z,966.39
2018-03-15T06:20:51.127Z,966.43
2018-03-15T06:21:51.051Z,966.41
2018-03-15T06:22:50.958Z,966.45
2018-03-15T06:23:50.869Z,966.41
2018-03-15T06:24:50.786Z,966.46
2018-03-15T06:25:50.696Z,966.49
2018-03-15T06:26:50.613Z,966.50
2018-03-15T06:27:50.531Z,966.51
2018-03-15T06:28:50.468Z,966.50
2018-03-15T06:29:50.356Z,966.51
2018-03-15T06:30:50.270Z,966.49
2018-03-15T06:31:50.189Z,966.52
2018-03-15T06:32:50.104Z,966.54
2018-03-15T06:33:50.014Z,966.52
2018-03-15T06:34:49.928Z,966.50
2018-03-15T06:35:49.844Z,966.51
2018-03-15T06:36:49.760Z,966.44
2018-03-15T06:37:49.671Z,966.45
2018-03-15T06:38:49.588Z,966.44
2018-03-15T06:39:49.506Z,966.39
2018-03-15T06:40:49.465Z,966.39
2018-03-15T06:41:49.385Z,966.37
2018-03-15T06:42:49.245Z,966.35
2018-03-15T06:43:49.160Z,966.33
2018-03-15T06:44:49.083Z,966.33
2018-03-15T06:45:49.009Z,966.28
2018-03-15T06:46:48.905Z,966.30
2018-03-15T06:47:48.826Z,966.25
2018-03-15T06:48:48.740Z,966.25
2018-03-15T06:49:48.655Z,966.25
2018-03-15T06:50:48.563Z,966.29
2018-03-15T06:51:48.486Z,966.29
2018-03-15T06:52:48.392Z,966.34
2018-03-15T06:53:48.313Z,966.31
2018-03-15T06:54:48.230Z,966.29
2018-03-15T06:55:48.139Z,966.33
2018-03-15T06:56:48.052Z,966.34
2018-03-15T06:57:47.968Z,966.28
2018-03-15T06:58:47.884Z,966.26
2018-03-15T06:59:47.803Z,966.26
2018-03-15T07:00:47.714Z,966.21
2018-03-15T07:01:47.632Z,966.17
2018-03-15T07:02:47.544Z,966.17
2018-03-15T07:03:47.496Z,966.09
2018-03-15T07:04:47.378Z,966.09
2018-03-15T07:05:47.289Z,966.08
2018-03-15T07:06:47.205Z,966.04
2018-03-15T07:07:47.122Z,966.04
2018-03-15T07:08:47.036Z,966.03
2018-03-15T07:09:46.952Z,966.02
2018-03-15T07:10:46.869Z,966.03
2018-03-15T07:11:46.782Z,966.05
2018-03-15T07:12:46.696Z,965.99
2018-03-15T07:13:46.612Z,965.99
2018-03-15T07:14:46.527Z,965.96
2018-03-15T07:15:46.445Z,965.98
2018-03-15T07:16:46.357Z,965.93
2018-03-15T07:17:46.274Z,965.93
2018-03-15T07:18:46.190Z,965.89
2018-03-15T07:19:46.115Z,965.93
2018-03-15T07:20:46.021Z,965.96
2018-03-15T07:21:45.936Z,965.95
2018-03-15T07:22:45.900Z,965.96
2018-03-15T07:23:45.769Z,965.97
2018-03-15T07:24:45.682Z,965.92
2018-03-15T07:25:45.598Z,965.95
2018-03-15T07:26:45.516Z,965.91
2018-03-15T07:27:45.429Z,965.87
2018-03-15T07:28:45.346Z,965.93
2018-03-15T07:29:45.265Z,965.82
2018-03-15T07:30:45.177Z,965.83
2018-03-15T07:31:45.093Z,965.81
2018-03-15T07:32:45.007Z,965.76
2018-03-15T07:33:44.925Z,965.78
2018-03-15T07:34:44.887Z,965.74
2018-03-15T07:35:44.754Z,965.73
2018-03-15T07:36:44.673Z,965.75
2018-03-15T07:37:44.585Z,965.76
2018-03-15T07:38:44.502Z,965.75
2018-03-15T07:39:44.417Z,965.72
2018-03-15T07:40:44.333Z,965.70
2018-03-15T07:41:44.249Z,965.65
2018-03-15T07:42:44.166Z,965.66
2018-03-15T07:43:44.085Z,965.65
2018-03-15T07:44:43.997Z,965.64
2018-03-15T07:45:43.917Z,965.65
2018-03-15T07:46:43.828Z,965.62
2018-03-15T07:47:43.745Z,965.64
2018-03-15T07:48:43.660Z,965.64
2018-03-15T07:49:43.577Z,965.64
2018-03-15T07:50:43.526Z,965.65
2018-03-15T07:51:43.411Z,965.65
2018-03-15T07:52:43.338Z,965.65
2018-03-15T07:53:43.249Z,965.70
2018-03-15T07:54:43.163Z,965.71
2018-03-15T07:55:43.078Z,965.72
2018-03-15T07:56:42.987Z,965.71
2018-03-15T07:57:42.906Z,965.71
2018-03-15T07:58:42.822Z,965.69
2018-03-15T07:59:42.741Z,965.69
2018-03-15T08:02:25.229Z,965.66
2018-03-15T08:03:25.096Z,965.64
2018-03-15T08:04:25.012Z,965.61
2018-03-15T08:05:24.931Z,965.58
2018-03-15T08:06:24.843Z,965.54
2018-03-15T08:07:24.787Z,965.55
2018-03-15T08:08:24.677Z,965.58
2018-03-15T08:09:24.600Z,965.55
2018-03-15T08:10:24.511Z,965.49
2018-03-15T08:11:24.426Z,965.51
2018-03-15T08:12:24.349Z,965.51
2018-03-15T08:13:24.271Z,965.50
2018-03-15T08:14:24.174Z,965.42
2018-03-15T08:15:24.091Z,965.39
2018-03-15T08:16:24.008Z,965.39
2018-03-15T08:17:23.926Z,965.40
2018-03-15T08:18:23.841Z,965.39
2018-03-15T08:19:23.766Z,965.42
2018-03-15T08:20:23.678Z,965.45
2018-03-15T08:21:23.601Z,965.41
2018-03-15T08:22:23.627Z,965.41
2018-03-15T08:23:23.424Z,965.39
2018-03-15T08:24:23.341Z,965.41
2018-03-15T08:25:23.263Z,965.39
2018-03-15T08:26:23.176Z,965.38
2018-03-15T08:27:23.091Z,965.39
2018-03-15T08:28:23.008Z,965.38
2018-03-15T08:29:22.927Z,965.36
2018-03-15T08:30:22.843Z,965.38
2018-03-15T08:31:22.760Z,965.37
2018-03-15T08:32:22.679Z,965.41
2018-03-15T08:33:22.604Z,965.39
2018-03-15T08:34:22.508Z,965.44
2018-03-15T08:35:22.426Z,965.48
2018-03-15T08:36:22.346Z,965.47
2018-03-15T08:37:22.262Z,965.48
2018-03-15T08:38:22.178Z,965.46
2018-03-15T08:39:22.097Z,965.45
2018-03-15T08:40:22.017Z,965.44
2018-03-15T08:41:21.929Z,965.43
2018-03-15T08:42:21.847Z,965.38
2018-03-15T08:43:21.794Z,965.38
2018-03-15T08:44:21.683Z,965.39
2018-03-15T08:45:21.599Z,965.36
2018-03-15T08:46:21.514Z,965.31
2018-03-15T08:47:21.432Z,965.32
2018-03-15T08:48:21.349Z,965.27
2018-03-15T08:49:21.272Z,965.28
2018-03-15T08:50:21.185Z,965.22
2018-03-15T08:51:21.100Z,965.19
2018-03-15T08:52:21.068Z,965.26
2018-03-15T08:53:20.939Z,965.19
2018-03-15T08:54:20.853Z,965.18
2018-03-15T08:55:20.771Z,965.19
2018-03-15T08:56:20.689Z,965.13
2018-03-15T08:57:20.649Z,965.10
2018-03-15T08:58:20.523Z,965.15
2018-03-15T08:59:20.440Z,965.18
2018-03-15T09:00:20.358Z,965.21
2018-03-15T09:01:20.277Z,965.20
2018-03-15T09:02:20.192Z,965.18
2018-03-15T09:03:20.112Z,965.20
2018-03-15T09:04:20.061Z,965.22
2018-03-15T09:05:19.945Z,965.20
2018-03-15T09:06:19.866Z,965.12
2018-03-15T09:07:19.781Z,965.12
2018-03-15T09:08:19.700Z,965.10
2018-03-15T09:09:19.664Z,965.07
2018-03-15T09:10:19.534Z,965.07
2018-03-15T09:11:19.453Z,965.06
2018-03-15T09:12:19.372Z,965.02
2018-03-15T09:13:19.297Z,965.04
2018-03-15T09:14:19.204Z,965.05
2018-03-15T09:15:19.123Z,965.10
2018-03-15T09:16:19.041Z,964.96
2018-03-15T09:17:18.962Z,965.09
2018-03-15T09:18:18.886Z,965.04
2018-03-15T09:19:18.795Z,965.00
2018-03-15T09:20:18.714Z,965.03
2018-03-15T09:21:18.633Z,965.03
2018-03-15T09:22:18.549Z,965.04
2018-03-15T09:23:18.467Z,965.07
2018-03-15T09:24:18.387Z,965.07
2018-03-15T09:25:18.309Z,965.07
2018-03-15T09:26:18.221Z,965.01
2018-03-15T09:27:18.141Z,964.99
2018-03-15T09:28:18.057Z,965.01
2018-03-15T09:29:17.976Z,964.98
2018-03-15T09:30:17.897Z,964.96
2018-03-15T09:31:17.812Z,964.98
2018-03-15T09:32:17.732Z,964.96
2018-03-15T09:33:17.670Z,964.99
2018-03-15T09:34:17.568Z,964.94
2018-03-15T09:35:17.487Z,964.94
2018-03-15T09:36:17.406Z,964.92
2018-03-15T09:37:17.329Z,964.98
2018-03-15T09:38:17.242Z,964.96
2018-03-15T09:39:17.163Z,964.94
2018-03-15T09:40:17.080Z,964.92
2018-03-15T09:41:17.001Z,964.92
2018-03-15T09:42:16.917Z,964.89
2018-03-15T09:43:16.834Z,964.84
2018-03-15T09:44:16.758Z,964.84
2018-03-15T09:45:16.684Z,964.81
2018-03-15T09:46:16.608Z,964.83
2018-03-15T09:47:16.512Z,964.83
2018-03-15T09:48:16.433Z,964.79
2018-03-15T09:49:16.353Z,964.81
2018-03-15T09:50:16.276Z,964.74
2018-03-15T09:51:16.223Z,964.76
2018-03-15T09:52:16.108Z,964.72
2018-03-15T09:53:16.028Z,964.69
2018-03-15T09:54:16.125Z,964.69
2018-03-15T09:55:15.922Z,964.66
2018-03-15T09:56:15.788Z,964.67
2018-03-15T09:57:15.706Z,964.66
2018-03-15T09:58:15.649Z,964.63
2018-03-15T09:59:15.553Z,964.58
2018-03-15T10:00:15.467Z,964.64
2018-03-15T10:01:15.385Z,964.67
2018-03-15T10:02:15.309Z,964.67
2018-03-15T10:03:15.230Z,964.64
2018-03-15T10:04:15.141Z,964.65
2018-03-15T10:05:15.064Z,964.65
2018-03-15T10:06:14.982Z,964.64
2018-03-15T10:07:14.905Z,964.65
2018-03-15T10:08:14.824Z,964.67
2018-03-15T10:09:14.760Z,964.68
2018-03-15T10:10:14.662Z,964.69
2018-03-15T10:11:14.585Z,964.68
2018-03-15T10:12:14.508Z,964.64
2018-03-15T10:13:14.431Z,964.67
2018-03-15T10:14:14.343Z,964.59
2018-03-15T10:15:14.271Z,964.54
2018-03-15T10:16:14.185Z,964.55
2018-03-15T10:17:14.107Z,964.51
2018-03-15T10:18:14.039Z,964.50
2018-03-15T10:19:13.946Z,964.48
2018-03-15T10:20:13.867Z,964.48
2018-03-15T10:21:13.788Z,964.50
2018-03-15T10:22:13.735Z,964.42
2018-03-15T10:23:13.628Z,964.43
2018-03-15T10:24:13.552Z,964.43
2018-03-15T10:25:25.882Z,964.48
2018-03-15T10:26:13.390Z,964.58
2018-03-15T10:27:13.309Z,964.56
2018-03-15T10:28:13.231Z,964.50
2018-03-15T10:29:13.154Z,964.50
2018-03-15T10:30:13.073Z,964.55
2018-03-15T10:31:12.996Z,964.54
2018-03-15T10:32:12.915Z,964.49
2018-03-15T10:33:12.876Z,964.46
2018-03-15T10:34:12.759Z,964.39
2018-03-15T10:35:12.679Z,964.43
2018-03-15T10:36:12.601Z,964.44
2018-03-15T10:37:12.522Z,964.39
2018-03-15T10:38:12.452Z,964.40
2018-03-15T10:39:12.365Z,964.37
2018-03-15T10:40:12.285Z,964.34
2018-03-15T10:41:12.209Z,964.34
2018-03-15T10:42:12.134Z,964.27
2018-03-15T10:43:12.050Z,964.28
2018-03-15T10:44:11.979Z,964.23
2018-03-15T10:45:11.894Z,964.20
2018-03-15T10:46:11.824Z,964.15
2018-03-15T10:47:11.742Z,964.16
2018-03-15T10:48:11.658Z,964.12
2018-03-15T10:49:11.580Z,964.10
2018-03-15T10:50:11.500Z,964.04
2018-03-15T10:51:11.421Z,963.99
2018-03-15T10:52:11.348Z,963.95
2018-03-15T10:53:11.267Z,963.97
2018-03-15T10:54:11.187Z,963.97
2018-03-15T10:55:11.111Z,963.94
2018-03-15T10:56:11.033Z,963.92
2018-03-15T10:57:10.954Z,963.93
2018-03-15T10:58:10.875Z,964.01
2018-03-15T10:59:10.817Z,963.97
2018-03-15T11:00:10.721Z,964.00
2018-03-15T11:01:10.642Z,964.03
2018-03-15T11:02:10.565Z,964.02
2018-03-15T11:03:10.485Z,963.98
2018-03-15T11:04:10.415Z,964.00
2018-03-15T11:05:10.333Z,963.95
2018-03-15T11:06:10.257Z,963.91
2018-03-15T11:07:10.176Z,963.90
2018-03-15T11:08:10.099Z,963.82
2018-03-15T11:09:10.024Z,963.83
2018-03-15T11:10:09.943Z,963.81
2018-03-15T11:11:09.870Z,963.78
2018-03-15T11:12:09.805Z,963.71
2018-03-15T11:13:09.710Z,963.69
2018-03-15T11:14:09.647Z,963.67
2018-03-15T11:15:09.560Z,963.68
2018-03-15T11:16:09.494Z,963.64
2018-03-15T11:17:09.402Z,963.67
2018-03-15T11:18:09.333Z,963.66
2018-03-15T11:19:09.260Z,963.60
2018-03-15T11:20:09.172Z,963.58
2018-03-15T11:21:09.097Z,963.58
2018-03-15T11:22:09.020Z,963.55
2018-03-15T11:23:08.945Z,963.54
2018-03-15T11:24:08.865Z,963.53
2018-03-15T11:25:08.792Z,963.46
2018-03-15T11:26:08.747Z,963.50
2018-03-15T11:27:08.636Z,963.42
2018-03-15T11:28:08.560Z,963.46
2018-03-15T11:29:08.485Z,963.52
2018-03-15T11:30:08.425Z,963.53
2018-03-15T11:31:08.336Z,963.53
2018-03-15T11:32:08.259Z,963.53
2018-03-15T11:33:08.186Z,963.53
2018-03-15T11:34:08.114Z,963.57
2018-03-15T11:35:08.036Z,963.59
2018-03-15T11:36:07.962Z,963.57
2018-03-15T11:37:07.889Z,963.61
2018-03-15T11:38:07.812Z,963.51
2018-03-15T11:39:07.743Z,963.51
2018-03-15T11:40:07.671Z,963.51
2018-03-15T11:41:07.601Z,963.51
2018-03-15T11:42:07.531Z,963.51
2018-03-15T11:43:07.455Z,963.49
2018-03-15T11:44:07.387Z,963.46
2018-03-15T11:45:07.313Z,963.48
2018-03-15T11:46:07.251Z,963.49
2018-03-15T11:47:07.173Z,963.50
2018-03-15T11:48:07.106Z,963.48
2018-03-15T11:49:07.036Z,963.49
2018-03-15T11:50:06.973Z,963.47
2018-03-15T11:51:06.897Z,963.39
2018-03-15T11:52:06.830Z,963.33
2018-03-15T11:53:06.770Z,963.31
2018-03-15T11:54:06.702Z,963.24
2018-03-15T11:55:06.626Z,963.22
2018-03-15T11:56:06.560Z,963.18
2018-03-15T11:57:06.495Z,963.16
2018-03-15T11:58:06.424Z,963.07
2018-03-15T11:59:06.366Z,962.99
2018-03-15T12:00:06.297Z,963.02
2018-03-15T12:01:06.229Z,963.05
2018-03-15T12:02:06.164Z,963.05
2018-03-15T12:03:06.094Z,963.06
2018-03-15T12:04:06.031Z,962.95
2018-03-15T12:05:05.973Z,962.98
2018-03-15T12:06:05.901Z,962.94
2018-03-15T12:07:05.846Z,962.97
2018-03-15T12:08:05.770Z,963.02
2018-03-15T12:09:05.707Z,963.00
2018-03-15T12:10:05.653Z,963.01
2018-03-15T12:11:05.580Z,963.01
2018-03-15T12:12:05.514Z,963.04
2018-03-15T12:13:05.450Z,963.00
2018-03-15T12:14:05.385Z,963.02
2018-03-15T12:15:05.323Z,962.99
2018-03-15T12:16:05.258Z,962.92
2018-03-15T12:17:05.199Z,962.89
2018-03-15T12:18:05.256Z,962.87
2018-03-15T12:19:05.067Z,962.80
2018-03-15T12:20:05.003Z,962.93
2018-03-15T12:21:04.941Z,962.82
2018-03-15T12:22:04.875Z,962.81
2018-03-15T12:23:04.811Z,962.79
2018-03-15T12:24:04.747Z,962.80
2018-03-15T12:25:04.685Z,962.66
2018-03-15T12:26:04.622Z,962.66
2018-03-15T12:27:04.555Z,962.63
2018-03-15T12:28:04.496Z,962.68
2018-03-15T12:29:04.428Z,962.70